createdAt,value
2022-11-29T00:01:39.433Z,97705.06
2022-11-29T00:04:07.294Z,97712.00
2022-11-29T00:06:35.613Z,97706.47
2022-11-29T00:09:07.519Z,97706.47
2022-11-29T00:11:56.099Z,97707.91
2022-11-29T00:14:24.981Z,97700.53
2022-11-29T00:16:55.301Z,97703.00
2022-11-29T00:19:23.001Z,97697.75
2022-11-29T00:21:50.578Z,97697.91
2022-11-29T00:24:18.616Z,97700.53
2022-11-29T00:26:46.592Z,97699.19
2022-11-29T00:29:14.417Z,97694.09
2022-11-29T00:31:42.433Z,97688.19
2022-11-29T00:34:11.635Z,97690.66
2022-11-29T00:36:39.257Z,97686.56
2022-11-29T00:39:07.444Z,97695.91
2022-11-29T00:41:35.389Z,97694.16
2022-11-29T00:44:02.934Z,97693.34
2022-11-29T00:46:30.402Z,97693.19
2022-11-29T00:48:57.833Z,97690.28
2022-11-29T00:51:25.389Z,97695.28
2022-11-29T00:53:52.868Z,97687.19
2022-11-29T00:56:20.358Z,97687.13
2022-11-29T00:58:49.336Z,97684.94
2022-11-29T01:01:17.134Z,97687.44
2022-11-29T01:03:44.689Z,97686.47
2022-11-29T01:06:14.336Z,97680.75
2022-11-29T01:08:42.238Z,97680.97
2022-11-29T01:11:18.783Z,97685.88
2022-11-29T01:13:47.277Z,97684.44
2022-11-29T01:16:15.954Z,97695.44
2022-11-29T01:18:44.043Z,97691.16
2022-11-29T01:21:14.874Z,97690.72
2022-11-29T01:23:43.302Z,97684.44
2022-11-29T01:26:14.198Z,97677.16
2022-11-29T01:28:42.429Z,97685.13
2022-11-29T01:31:16.045Z,97680.25
2022-11-29T01:33:43.543Z,97688.59
2022-11-29T01:36:13.342Z,97693.75
2022-11-29T01:38:42.605Z,97691.53
2022-11-29T01:41:19.216Z,97694.38
2022-11-29T01:44:25.939Z,97699.03
2022-11-29T01:46:54.589Z,97691.50
2022-11-29T01:49:27.326Z,97692.88
2022-11-29T01:52:14.784Z,97693.94
2022-11-29T01:54:45.558Z,97689.66
2022-11-29T01:57:13.640Z,97693.38
2022-11-29T01:59:54.786Z,97696.44
2022-11-29T02:02:32.732Z,97695.78
2022-11-29T02:05:01.258Z,97689.50
2022-11-29T02:07:29.041Z,97691.50
2022-11-29T02:09:56.555Z,97707.69
2022-11-29T02:13:11.728Z,97703.78
2022-11-29T02:15:57.368Z,97705.13
2022-11-29T02:18:50.157Z,97704.34
2022-11-29T02:21:20.395Z,97712.06
2022-11-29T02:24:15.428Z,97711.00
2022-11-29T02:26:49.085Z,97712.81
2022-11-29T02:29:46.034Z,97714.38
2022-11-29T02:32:31.784Z,97716.63
2022-11-29T02:35:17.818Z,97714.53
2022-11-29T02:37:54.839Z,97715.91
2022-11-29T02:41:01.183Z,97718.28
2022-11-29T02:43:53.306Z,97720.75
2022-11-29T02:46:26.518Z,97715.47
2022-11-29T02:49:24.638Z,97723.91
2022-11-29T02:52:39.618Z,97722.28
2022-11-29T02:55:13.804Z,97719.00
2022-11-29T02:57:50.625Z,97724.91
2022-11-29T03:00:23.211Z,97722.13
2022-11-29T03:02:53.671Z,97726.81
2022-11-29T03:05:30.314Z,97729.44
2022-11-29T03:08:18.501Z,97732.28
2022-11-29T03:10:58.246Z,97731.38
2022-11-29T03:13:54.594Z,97737.66
2022-11-29T03:16:43.568Z,97737.38
2022-11-29T03:19:48.188Z,97736.38
2022-11-29T03:23:07.877Z,97742.47
2022-11-29T03:25:59.428Z,97750.81
2022-11-29T03:28:38.258Z,97748.47
2022-11-29T03:31:16.328Z,97748.28
2022-11-29T03:34:20.724Z,97751.56
2022-11-29T03:37:10.003Z,97749.44
2022-11-29T03:39:41.894Z,97752.94
2022-11-29T03:42:17.771Z,97753.72
2022-11-29T03:45:08.721Z,97751.28
2022-11-29T03:47:42.827Z,97747.81
2022-11-29T03:50:20.526Z,97749.09
2022-11-29T03:52:53.553Z,97755.00
2022-11-29T03:55:47.158Z,97749.94
2022-11-29T03:58:36.068Z,97746.09
2022-11-29T04:01:30.880Z,97751.09
2022-11-29T04:04:34.344Z,97756.38
2022-11-29T04:07:42.979Z,97754.72
2022-11-29T04:10:41.003Z,97758.19
2022-11-29T04:13:42.657Z,97759.81
2022-11-29T04:16:28.891Z,97756.97
2022-11-29T04:18:56.317Z,97752.19
2022-11-29T04:22:11.238Z,97761.53
2022-11-29T04:24:57.073Z,97761.06
2022-11-29T04:27:27.044Z,97766.63
2022-11-29T04:30:27.713Z,97767.44
2022-11-29T04:33:37.447Z,97765.44
2022-11-29T04:36:35.706Z,97766.53
2022-11-29T04:39:24.333Z,97768.44
2022-11-29T04:42:03.288Z,97774.88
2022-11-29T04:44:49.504Z,97777.16
2022-11-29T04:47:29.014Z,97778.91
2022-11-29T04:50:13.036Z,97783.53
2022-11-29T04:52:56.608Z,97784.34
2022-11-29T04:55:44.608Z,97790.69
2022-11-29T04:58:36.004Z,97791.50
2022-11-29T05:01:27.604Z,97790.03
2022-11-29T05:11:44.786Z,97795.44
2022-11-29T05:14:41.093Z,97802.31
2022-11-29T05:17:30.722Z,97803.69
2022-11-29T05:20:27.427Z,97804.66
2022-11-29T05:23:24.182Z,97801.06
2022-11-29T05:26:25.016Z,97805.97
2022-11-29T05:29:03.216Z,97809.13
2022-11-29T05:32:21.811Z,97813.22
2022-11-29T05:34:52.103Z,97814.59
2022-11-29T05:37:31.115Z,97817.22
2022-11-29T05:40:13.456Z,97825.13
2022-11-29T05:43:06.096Z,97820.22
2022-11-29T05:46:08.433Z,97819.91
2022-11-29T05:48:46.578Z,97819.91
2022-11-29T05:51:53.034Z,97815.31
2022-11-29T05:54:44.594Z,97812.75
2022-11-29T05:57:57.204Z,97814.00
2022-11-29T06:00:29.807Z,97822.72
2022-11-29T06:03:06.527Z,97827.16
2022-11-29T06:05:47.692Z,97833.25
2022-11-29T06:08:33.686Z,97836.88
2022-11-29T06:11:05.889Z,97834.50
2022-11-29T06:13:55.500Z,97834.25
2022-11-29T06:16:31.830Z,97838.41
2022-11-29T06:19:19.358Z,97840.16
2022-11-29T06:22:09.335Z,97836.69
2022-11-29T06:25:05.077Z,97847.41
2022-11-29T06:27:50.555Z,97846.25
2022-11-29T06:30:26.757Z,97845.16
2022-11-29T06:33:14.193Z,97852.22
2022-11-29T06:35:52.226Z,97852.22
2022-11-29T06:38:27.362Z,97859.13
2022-11-29T06:41:01.555Z,97864.09
2022-11-29T06:43:31.009Z,97867.09
2022-11-29T06:46:14.896Z,97865.75
2022-11-29T06:48:46.570Z,97861.31
2022-11-29T06:51:29.028Z,97866.72
2022-11-29T06:54:06.216Z,97864.75
2022-11-29T06:56:41.956Z,97869.84
2022-11-29T06:59:21.587Z,97871.00
2022-11-29T07:02:04.829Z,97878.09
2022-11-29T07:04:55.436Z,97875.28
2022-11-29T07:07:24.107Z,97880.25
2022-11-29T07:09:57.082Z,97879.38
2022-11-29T07:12:24.847Z,97882.16
2022-11-29T07:14:52.686Z,97879.81
2022-11-29T07:17:29.224Z,97883.47
2022-11-29T07:20:02.835Z,97882.00
2022-11-29T07:22:42.623Z,97888.63
2022-11-29T07:25:24.742Z,97889.25
2022-11-29T07:28:01.615Z,97899.78
2022-11-29T07:30:53.632Z,97899.88
2022-11-29T07:33:53.426Z,97888.34
2022-11-29T07:36:38.483Z,97902.53
2022-11-29T07:39:38.303Z,97895.63
2022-11-29T07:42:41.528Z,97901.91
2022-11-29T07:45:26.543Z,97902.19
2022-11-29T07:47:54.515Z,97907.72
2022-11-29T07:50:22.365Z,97914.16
2022-11-29T07:52:50.184Z,97915.28
2022-11-29T07:55:21.203Z,97926.00
2022-11-29T07:57:49.733Z,97917.91
2022-11-29T08:00:18.565Z,97921.66
2022-11-29T08:02:47.492Z,97923.13
2022-11-29T08:05:15.104Z,97925.69
2022-11-29T08:07:43.082Z,97917.28
2022-11-29T08:10:13.815Z,97916.69
2022-11-29T08:12:47.459Z,97928.84
2022-11-29T08:15:15.235Z,97923.56
2022-11-29T08:17:42.985Z,97929.03
2022-11-29T08:20:12.819Z,97927.44
2022-11-29T08:22:40.448Z,97928.69
2022-11-29T08:25:09.095Z,97930.53
2022-11-29T08:27:37.673Z,97931.16
2022-11-29T08:30:06.756Z,97927.25
2022-11-29T08:32:34.878Z,97922.16
2022-11-29T08:35:02.433Z,97928.44
2022-11-29T08:37:30.172Z,97936.59
2022-11-29T08:39:59.042Z,97930.25
2022-11-29T08:42:26.539Z,97931.63
2022-11-29T08:44:54.037Z,97937.06
2022-11-29T08:47:36.499Z,97928.19
2022-11-29T08:50:07.335Z,97934.72
2022-11-29T08:52:56.046Z,97937.06
2022-11-29T08:55:26.477Z,97938.81
2022-11-29T08:58:00.118Z,97938.53
2022-11-29T09:00:27.657Z,97936.69
2022-11-29T09:02:55.123Z,97946.53
2022-11-29T09:05:22.717Z,97946.88
2022-11-29T09:07:50.250Z,97950.00
2022-11-29T09:10:17.825Z,97953.53
2022-11-29T09:12:45.813Z,97951.66
2022-11-29T09:15:13.383Z,97951.28
2022-11-29T09:17:40.896Z,97955.38
2022-11-29T09:20:09.015Z,97957.81
2022-11-29T09:22:36.510Z,97949.38
2022-11-29T09:25:04.497Z,97958.19
2022-11-29T09:27:32.107Z,97962.47
2022-11-29T09:29:59.671Z,97964.03
2022-11-29T09:32:27.181Z,97964.63
2022-11-29T09:34:54.629Z,97962.09
2022-11-29T09:37:22.127Z,97948.38
2022-11-29T09:39:49.575Z,97967.84
2022-11-29T09:42:35.618Z,97961.19
2022-11-29T09:45:09.725Z,97971.19
2022-11-29T09:47:52.199Z,97968.44
2022-11-29T09:50:25.507Z,97956.56
2022-11-29T09:53:04.911Z,97962.28
2022-11-29T09:55:50.804Z,97961.03
2022-11-29T09:58:21.762Z,97961.47
2022-11-29T10:00:52.544Z,97965.72
2022-11-29T10:03:29.545Z,97966.19
2022-11-29T10:06:27.046Z,97968.09
2022-11-29T10:09:04.528Z,97958.47
2022-11-29T10:11:49.761Z,97970.00
2022-11-29T10:14:22.924Z,97969.19
2022-11-29T10:17:01.309Z,97967.34
2022-11-29T10:19:36.945Z,97963.16
2022-11-29T10:22:14.361Z,97966.97
2022-11-29T10:24:47.112Z,97967.16
2022-11-29T10:27:19.804Z,97962.09
2022-11-29T10:29:50.587Z,97964.44
2022-11-29T10:32:21.395Z,97957.97
2022-11-29T10:34:49.937Z,97964.81
2022-11-29T10:37:22.137Z,97962.50
2022-11-29T10:40:13.236Z,97968.91
2022-11-29T10:42:50.037Z,97960.03
2022-11-29T10:45:20.598Z,97964.75
2022-11-29T10:47:50.396Z,97958.41
2022-11-29T10:50:22.153Z,97959.31
2022-11-29T10:52:49.677Z,97970.50
2022-11-29T10:55:18.427Z,97969.56
2022-11-29T10:58:08.703Z,97962.56
2022-11-29T11:01:07.078Z,97964.66
2022-11-29T11:03:41.457Z,97963.41
2022-11-29T11:06:18.917Z,97956.47
2022-11-29T11:08:49.975Z,97960.00
2022-11-29T11:11:38.911Z,97966.59
2022-11-29T11:14:27.872Z,97965.78
2022-11-29T11:16:55.888Z,97963.53
2022-11-29T11:19:34.563Z,97973.66
2022-11-29T11:22:03.436Z,97967.41
2022-11-29T11:24:40.186Z,97964.84
2022-11-29T11:27:08.147Z,97971.03
2022-11-29T11:29:42.456Z,97964.59
2022-11-29T11:32:20.326Z,97967.84
2022-11-29T11:35:02.282Z,97972.84
2022-11-29T11:37:33.796Z,97968.63
2022-11-29T11:40:20.906Z,97970.16
2022-11-29T11:42:48.567Z,97976.56
2022-11-29T11:45:15.976Z,97971.53
2022-11-29T11:47:53.074Z,97971.44
2022-11-29T11:50:28.323Z,97975.59
2022-11-29T11:53:05.106Z,97969.34
2022-11-29T11:55:43.290Z,97972.59
2022-11-29T11:58:13.787Z,97969.88
2022-11-29T12:01:04.973Z,97974.22
2022-11-29T12:03:58.418Z,97976.81
2022-11-29T12:07:04.327Z,97982.53
2022-11-29T12:09:43.707Z,97977.84
2022-11-29T12:12:24.678Z,97980.41
2022-11-29T12:14:56.890Z,97978.19
2022-11-29T12:18:01.927Z,97985.00
2022-11-29T12:20:45.435Z,97980.72
2022-11-29T12:23:12.847Z,97989.31
2022-11-29T12:26:05.836Z,97985.38
2022-11-29T12:28:38.593Z,97982.47
2022-11-29T12:31:18.085Z,97988.34
2022-11-29T12:34:22.862Z,97986.81
2022-11-29T12:37:24.426Z,97990.50
2022-11-29T12:40:06.561Z,97989.09
2022-11-29T12:42:45.274Z,97994.38
2022-11-29T12:45:33.917Z,98003.66
2022-11-29T12:48:29.067Z,98000.56
2022-11-29T12:51:25.867Z,98002.19
2022-11-29T12:54:24.843Z,98012.88
2022-11-29T12:57:04.826Z,98012.22
2022-11-29T12:59:42.186Z,98012.88
2022-11-29T13:02:34.877Z,98012.75
2022-11-29T13:05:14.724Z,98013.44
2022-11-29T13:08:07.538Z,98014.72
2022-11-29T13:11:04.400Z,98016.25
2022-11-29T13:13:50.086Z,98015.09
2022-11-29T13:16:31.403Z,98022.00
2022-11-29T13:19:08.286Z,98022.09
2022-11-29T13:22:02.127Z,98026.56
2022-11-29T13:24:42.575Z,98027.06
2022-11-29T13:27:18.870Z,98021.53
2022-11-29T13:29:47.355Z,98024.63
2022-11-29T13:32:28.582Z,98026.91
2022-11-29T13:35:03.465Z,98024.19
2022-11-29T13:37:42.959Z,98035.25
2022-11-29T13:40:19.501Z,98032.69
2022-11-29T13:42:56.880Z,98035.63
2022-11-29T13:45:39.381Z,98035.72
2022-11-29T13:48:37.216Z,98039.47
2022-11-29T13:51:41.498Z,98032.28
2022-11-29T13:54:31.101Z,98043.78
2022-11-29T13:57:05.275Z,98047.22
2022-11-29T13:59:36.339Z,98047.06
2022-11-29T14:02:15.708Z,98051.63
2022-11-29T14:04:46.405Z,98049.44
2022-11-29T14:07:19.824Z,98052.88
2022-11-29T14:10:05.806Z,98055.78
2022-11-29T14:12:56.149Z,98053.97
2022-11-29T14:15:28.484Z,98059.31
2022-11-29T14:18:26.628Z,98056.13
2022-11-29T14:20:55.769Z,98057.03
2022-11-29T14:23:44.544Z,98056.19
2022-11-29T14:26:28.290Z,98061.03
2022-11-29T14:28:56.426Z,98062.13
2022-11-29T14:31:48.710Z,98065.31
2022-11-29T14:34:26.661Z,98060.56
2022-11-29T14:37:02.693Z,98061.94
2022-11-29T14:39:52.791Z,98065.19
2022-11-29T14:42:23.683Z,98063.56
2022-11-29T14:44:58.477Z,98069.09
2022-11-29T14:47:33.079Z,98062.50
2022-11-29T14:50:06.731Z,98066.69
2022-11-29T14:52:39.621Z,98072.59
2022-11-29T14:55:07.452Z,98073.66
2022-11-29T14:57:54.610Z,98072.53
2022-11-29T15:00:24.939Z,98074.72
2022-11-29T15:03:01.508Z,98073.91
2022-11-29T15:05:59.579Z,98080.97
2022-11-29T15:08:27.047Z,98081.03
2022-11-29T15:11:02.136Z,98077.47
2022-11-29T15:13:33.055Z,98085.38
2022-11-29T15:16:21.843Z,98083.75
2022-11-29T15:19:16.729Z,98088.84
2022-11-29T15:21:50.369Z,98089.97
2022-11-29T15:24:18.656Z,98090.34
2022-11-29T15:27:03.580Z,98093.63
2022-11-29T15:29:31.825Z,98093.78
2022-11-29T15:32:04.309Z,98097.97
2022-11-29T15:34:38.234Z,98103.03
2022-11-29T15:37:06.053Z,98103.84
2022-11-29T15:39:37.601Z,98111.47
2022-11-29T15:42:11.899Z,98101.75
2022-11-29T15:44:49.253Z,98114.25
2022-11-29T15:47:25.362Z,98116.25
2022-11-29T15:49:54.157Z,98116.91
2022-11-29T15:52:27.427Z,98115.09
2022-11-29T15:55:01.334Z,98122.97
2022-11-29T15:57:37.098Z,98116.75
2022-11-29T16:00:15.927Z,98113.78
2022-11-29T16:02:53.707Z,98121.03
2022-11-29T16:05:37.040Z,98128.81
2022-11-29T16:08:08.398Z,98119.56
2022-11-29T16:10:43.682Z,98127.47
2022-11-29T16:13:39.816Z,98118.13
2022-11-29T16:16:19.576Z,98123.69
2022-11-29T16:18:48.959Z,98130.16
2022-11-29T16:21:24.664Z,98140.84
2022-11-29T16:23:52.933Z,98132.78
2022-11-29T16:26:24.727Z,98136.75
2022-11-29T16:28:54.445Z,98136.09
2022-11-29T16:31:30.538Z,98142.81
2022-11-29T16:34:05.921Z,98147.94
2022-11-29T16:36:33.523Z,98148.09
2022-11-29T16:39:07.080Z,98152.53
2022-11-29T16:41:38.963Z,98150.72
2022-11-29T16:44:36.165Z,98152.19
2022-11-29T16:47:25.620Z,98154.00
2022-11-29T16:50:02.096Z,98157.31
2022-11-29T16:52:32.327Z,98148.78
2022-11-29T16:55:00.662Z,98155.00
2022-11-29T16:57:29.450Z,98154.19
2022-11-29T16:59:57.185Z,98168.34
2022-11-29T17:02:24.663Z,98165.69
2022-11-29T17:04:52.188Z,98162.44
2022-11-29T17:07:32.306Z,98165.69
2022-11-29T17:10:00.194Z,98169.66
2022-11-29T17:12:27.612Z,98163.72
2022-11-29T17:14:55.042Z,98170.47
2022-11-29T17:17:22.510Z,98159.94
2022-11-29T17:19:49.990Z,98167.50
2022-11-29T17:22:17.482Z,98170.94
2022-11-29T17:24:48.238Z,98171.75
2022-11-29T17:27:16.230Z,98178.19
2022-11-29T17:29:43.599Z,98180.66
2022-11-29T17:32:11.211Z,98173.72
2022-11-29T17:34:38.825Z,98176.38
2022-11-29T17:37:06.286Z,98188.03
2022-11-29T17:39:33.851Z,98180.63
2022-11-29T17:42:01.282Z,98187.06
2022-11-29T17:44:28.808Z,98190.16
2022-11-29T17:46:56.255Z,98195.94
2022-11-29T17:49:23.769Z,98183.91
2022-11-29T17:51:52.970Z,98192.00
2022-11-29T17:54:22.308Z,98199.53
2022-11-29T17:56:50.765Z,98198.06
2022-11-29T17:59:18.306Z,98204.03
2022-11-29T18:01:48.847Z,98205.78
2022-11-29T18:04:16.680Z,98199.75
2022-11-29T18:06:49.811Z,98202.88
2022-11-29T18:09:18.713Z,98205.84
2022-11-29T18:11:49.413Z,98206.00
2022-11-29T18:14:20.643Z,98205.66
2022-11-29T18:16:51.791Z,98203.53
2022-11-29T18:19:21.777Z,98214.22
2022-11-29T18:21:49.776Z,98209.78
2022-11-29T18:24:18.092Z,98216.03
2022-11-29T18:26:45.700Z,98218.66
2022-11-29T18:29:13.479Z,98214.91
2022-11-29T18:31:43.559Z,98216.72
2022-11-29T18:34:13.207Z,98214.22
2022-11-29T18:36:43.590Z,98206.31
2022-11-29T18:39:16.341Z,98210.09
2022-11-29T18:41:46.702Z,98210.28
2022-11-29T18:44:15.748Z,98210.59
2022-11-29T18:46:44.750Z,98207.00
2022-11-29T18:49:15.561Z,98205.66
2022-11-29T18:51:45.051Z,98212.94
2022-11-29T18:54:14.660Z,98212.94
2022-11-29T18:56:43.488Z,98213.88
2022-11-29T18:59:19.319Z,98216.06
2022-11-29T19:01:48.539Z,98213.09
2022-11-29T19:04:19.133Z,98214.75
2022-11-29T19:06:47.222Z,98218.53
2022-11-29T19:09:21.485Z,98215.25
2022-11-29T19:11:49.927Z,98220.19
2022-11-29T19:14:18.491Z,98223.47
2022-11-29T19:16:48.610Z,98225.44
2022-11-29T19:19:18.655Z,98219.03
2022-11-29T19:21:46.694Z,98222.16
2022-11-29T19:24:15.847Z,98228.06
2022-11-29T19:26:45.102Z,98223.16
2022-11-29T19:29:13.952Z,98218.56
2022-11-29T19:31:42.640Z,98225.13
2022-11-29T19:34:10.710Z,98228.09
2022-11-29T19:36:44.227Z,98232.53
2022-11-29T19:39:14.592Z,98224.63
2022-11-29T19:41:44.560Z,98221.66
2022-11-29T19:44:12.470Z,98220.88
2022-11-29T19:46:42.668Z,98229.41
2022-11-29T19:49:10.507Z,98228.59
2022-11-29T19:51:38.483Z,98236.31
2022-11-29T19:54:07.839Z,98230.09
2022-11-29T19:56:35.710Z,98243.91
2022-11-29T19:59:03.179Z,98241.28
2022-11-29T20:01:39.768Z,98242.44
2022-11-29T20:04:09.760Z,98247.56
2022-11-29T20:06:37.940Z,98241.63
2022-11-29T20:09:06.521Z,98254.13
2022-11-29T20:11:34.336Z,98245.25
2022-11-29T20:14:03.690Z,98249.69
2022-11-29T20:16:32.100Z,98252.81
2022-11-29T20:18:59.600Z,98256.91
2022-11-29T20:21:30.676Z,98254.94
2022-11-29T20:24:01.357Z,98267.28
2022-11-29T20:26:33.277Z,98261.34
2022-11-29T20:29:02.293Z,98266.28
2022-11-29T20:31:30.343Z,98260.19
2022-11-29T20:33:58.162Z,98259.72
2022-11-29T20:37:06.854Z,98252.31
2022-11-29T20:39:40.348Z,98261.53
2022-11-29T20:42:29.625Z,98269.56
2022-11-29T20:45:02.810Z,98265.47
2022-11-29T20:47:45.085Z,98271.06
2022-11-29T20:50:24.338Z,98275.34
2022-11-29T20:53:25.199Z,98269.91
2022-11-29T20:55:52.698Z,98275.50
2022-11-29T20:58:20.199Z,98276.00
2022-11-29T21:00:47.736Z,98278.44
2022-11-29T21:03:19.280Z,98277.81
2022-11-29T21:05:47.602Z,98267.28
2022-11-29T21:08:16.539Z,98269.91
2022-11-29T21:10:44.279Z,98268.25
2022-11-29T21:13:13.159Z,98270.06
2022-11-29T21:15:41.042Z,98274.84
2022-11-29T21:18:20.458Z,98279.28
2022-11-29T21:21:02.017Z,98270.72
2022-11-29T21:23:38.400Z,98280.59
2022-11-29T21:26:16.633Z,98285.88
2022-11-29T21:28:57.748Z,98284.88
2022-11-29T21:31:25.653Z,98281.44
2022-11-29T21:33:54.155Z,98278.47
2022-11-29T21:36:21.749Z,98278.47
2022-11-29T21:38:54.019Z,98279.94
2022-11-29T21:41:22.904Z,98290.31
2022-11-29T21:44:06.179Z,98283.91
2022-11-29T21:46:35.661Z,98285.06
2022-11-29T21:49:04.085Z,98281.94
2022-11-29T21:51:31.718Z,98287.34
2022-11-29T21:53:59.190Z,98287.34
2022-11-29T21:56:26.777Z,98287.53
2022-11-29T21:58:54.203Z,98286.22
2022-11-29T22:01:21.809Z,98286.69
2022-11-29T22:03:53.858Z,98295.75
2022-11-29T22:06:24.430Z,98293.78
2022-11-29T22:08:52.128Z,98285.72
2022-11-29T22:11:31.096Z,98287.22
2022-11-29T22:14:19.008Z,98286.03
2022-11-29T22:16:58.665Z,98286.69
2022-11-29T22:19:34.457Z,98295.91
2022-11-29T22:22:07.028Z,98294.91
2022-11-29T22:24:36.270Z,98290.84
2022-11-29T22:27:04.229Z,98289.84
2022-11-29T22:29:31.742Z,98287.69
2022-11-29T22:31:59.678Z,98290.31
2022-11-29T22:34:28.213Z,98292.13
2022-11-29T22:36:56.479Z,98289.69
2022-11-29T22:39:24.276Z,98284.56
2022-11-29T22:41:54.544Z,98284.41
2022-11-29T22:44:25.908Z,98278.81
2022-11-29T22:46:53.587Z,98288.34
2022-11-29T22:49:21.301Z,98281.28
2022-11-29T22:51:48.999Z,98283.75
2022-11-29T22:54:17.472Z,98290.00
2022-11-29T22:56:45.917Z,98289.47
2022-11-29T22:59:13.893Z,98292.63
2022-11-29T23:01:42.345Z,98300.69
2022-11-29T23:04:12.264Z,98296.25
2022-11-29T23:06:45.590Z,98302.66
2022-11-29T23:09:18.997Z,98305.78
2022-11-29T23:11:51.138Z,98306.28
2022-11-29T23:14:19.240Z,98304.81
2022-11-29T23:16:46.869Z,98318.94
2022-11-29T23:19:16.785Z,98306.78
2022-11-29T23:21:45.935Z,98297.25
2022-11-29T23:24:14.605Z,98299.19
2022-11-29T23:26:46.024Z,98301.50
2022-11-29T23:29:16.618Z,98294.25
2022-11-29T23:31:44.692Z,98297.56
2022-11-29T23:34:12.795Z,98303.78
2022-11-29T23:36:40.329Z,98292.94
2022-11-29T23:39:08.129Z,98294.44
2022-11-29T23:41:36.872Z,98296.41
2022-11-29T23:44:05.869Z,98292.94
2022-11-29T23:46:35.156Z,98291.78
2022-11-29T23:49:02.919Z,98293.78
2022-11-29T23:51:30.527Z,98286.38
2022-11-29T23:53:57.997Z,98290.00
2022-11-29T23:56:25.726Z,98289.81
2022-11-29T23:58:53.128Z,98289.16
